Time;durP1;ratioP1;P1;durP2;ratioP2;P2;SDS_P1;SDS_P2;PMS_P1;PMS_P2;Temp;Humidity;BMP_temperature;BMP_pressure;BME280_temperature;BME280_humidity;BME280_pressure;Samples;Min_cycle;Max_cycle;Signal;HPM_P1;HPM_P2
2021/05/12 03:55:17;;;;;;;6.97;6.28;;;12.00;99.90;;;;;;4993801;28;20065;-67
2021/05/12 03:57:45;;;;;;;7.47;6.68;;;12.00;99.90;;;;;;4992351;28;20450;-68
2021/05/12 04:00:12;;;;;;;8.50;6.88;;;12.00;99.90;;;;;;5005945;28;20019;-68
2021/05/12 04:02:39;;;;;;;8.68;6.38;;;12.10;99.90;;;;;;4992422;28;20041;-69
2021/05/12 04:05:08;;;;;;;8.02;6.78;;;12.10;99.90;;;;;;4991817;28;20501;-69
2021/05/12 04:07:35;;;;;;;7.53;6.47;;;12.10;99.90;;;;;;4992039;28;20039;-69
2021/05/12 04:10:01;;;;;;;6.40;5.72;;;12.20;99.90;;;;;;4991697;28;20036;-68
2021/05/12 04:12:27;;;;;;;6.80;6.20;;;12.30;99.90;;;;;;4992055;28;20057;-69
2021/05/12 04:14:54;;;;;;;8.90;6.82;;;12.30;99.90;;;;;;4991933;28;20069;-69
2021/05/12 04:17:21;;;;;;;6.97;6.03;;;12.30;99.90;;;;;;4991929;28;20077;-69
2021/05/12 04:19:48;;;;;;;7.85;6.28;;;12.30;99.90;;;;;;4991958;28;20035;-69
2021/05/12 04:22:15;;;;;;;7.63;6.40;;;12.40;99.90;;;;;;4994566;28;20479;-68
2021/05/12 04:24:41;;;;;;;6.90;6.25;;;12.40;99.90;;;;;;5011550;28;20112;-68
2021/05/12 04:27:10;;;;;;;8.00;7.20;;;12.50;99.90;;;;;;4997550;28;20117;-68
2021/05/12 04:29:36;;;;;;;8.70;6.72;;;12.40;99.90;;;;;;5005763;28;20030;-68
2021/05/12 04:32:06;;;;;;;9.73;8.50;;;12.40;99.90;;;;;;4996139;28;20359;-69
2021/05/12 04:34:34;;;;;;;10.52;8.60;;;12.40;99.90;;;;;;4990688;28;20019;-68
2021/05/12 04:37:00;;;;;;;10.63;9.52;;;12.40;99.90;;;;;;5004312;28;20054;-68
2021/05/12 04:39:26;;;;;;;12.07;10.70;;;12.40;99.90;;;;;;5001543;28;20061;-66
2021/05/12 04:41:52;;;;;;;13.45;10.98;;;12.40;99.90;;;;;;5009025;28;20386;-70
2021/05/12 04:44:20;;;;;;;15.45;10.90;;;12.40;99.90;;;;;;4995573;28;20118;-69
2021/05/12 04:46:49;;;;;;;14.75;12.02;;;12.30;99.90;;;;;;4989067;28;20022;-70
2021/05/12 04:49:16;;;;;;;16.60;12.27;;;12.20;99.90;;;;;;4995687;28;20049;-69
2021/05/12 04:51:44;;;;;;;13.45;11.52;;;12.20;99.90;;;;;;4995709;28;20026;-69
2021/05/12 04:54:12;;;;;;;15.35;11.25;;;12.10;99.90;;;;;;4990184;28;20022;-69
2021/05/12 04:56:38;;;;;;;15.50;11.60;;;12.10;99.90;;;;;;4994568;28;20454;-70
2021/05/12 04:59:04;;;;;;;12.90;11.10;;;12.10;99.90;;;;;;4994789;28;20585;-69
2021/05/12 05:01:31;;;;;;;13.25;10.23;;;12.10;99.90;;;;;;4987750;28;20039;-69
2021/05/12 05:03:59;;;;;;;13.10;11.23;;;12.20;99.90;;;;;;4987676;28;20023;-70
2021/05/12 05:06:26;;;;;;;12.88;10.82;;;12.30;99.90;;;;;;4985047;28;20125;-70
2021/05/12 05:08:52;;;;;;;13.63;10.68;;;12.30;99.90;;;;;;4987284;28;20467;-69
2021/05/12 05:11:18;;;;;;;11.25;9.23;;;12.30;99.90;;;;;;4991049;28;20081;-69
2021/05/12 05:13:46;;;;;;;14.23;11.13;;;12.20;99.90;;;;;;4994693;28;20035;-69
2021/05/12 05:16:14;;;;;;;13.07;10.23;;;12.10;99.90;;;;;;4994461;28;20030;-69
2021/05/12 05:18:39;;;;;;;14.13;11.90;;;12.00;99.90;;;;;;4991921;28;20022;-69
2021/05/12 05:21:07;;;;;;;15.77;9.48;;;12.00;99.90;;;;;;4986973;28;20449;-69
2021/05/12 05:23:35;;;;;;;11.80;9.57;;;12.00;99.90;;;;;;4989215;28;20371;-69
2021/05/12 05:26:02;;;;;;;10.50;9.40;;;11.90;99.90;;;;;;4982013;28;20130;-72
2021/05/12 05:28:28;;;;;;;12.93;10.10;;;11.90;99.90;;;;;;4994888;28;20061;-71
2021/05/12 05:30:55;;;;;;;11.10;8.80;;;11.80;99.90;;;;;;4994389;28;20077;-73
2021/05/12 05:33:21;;;;;;;11.90;9.50;;;12.30;99.90;;;;;;5000468;28;20060;-73
2021/05/12 05:35:47;;;;;;;12.15;10.15;;;12.30;99.90;;;;;;5001975;28;20066;-71
2021/05/12 05:38:14;;;;;;;16.02;11.40;;;12.10;99.90;;;;;;4994691;28;20019;-70
2021/05/12 05:40:40;;;;;;;12.25;10.73;;;11.90;99.90;;;;;;4994371;28;20026;-71
2021/05/12 05:43:08;;;;;;;14.68;10.93;;;11.80;99.90;;;;;;4994017;28;20394;-71
2021/05/12 05:45:34;;;;;;;14.23;10.20;;;11.60;99.90;;;;;;4994860;28;20030;-71
2021/05/12 05:48:00;;;;;;;15.70;10.82;;;11.60;99.90;;;;;;4994353;28;20048;-71
2021/05/12 05:50:26;;;;;;;14.05;10.15;;;11.60;99.90;;;;;;4994688;28;20026;-71
2021/05/12 05:52:56;;;;;;;15.23;10.52;;;11.60;99.90;;;;;;4994497;28;20413;-71
2021/05/12 05:55:22;;;;;;;19.33;11.07;;;11.50;99.90;;;;;;4994122;28;20054;-71
2021/05/12 05:57:50;;;;;;;16.30;10.88;;;11.40;99.90;;;;;;4994685;28;20121;-71
2021/05/12 06:00:16;;;;;;;15.88;10.80;;;11.40;99.90;;;;;;4994635;28;20041;-72
2021/05/12 06:02:42;;;;;;;15.13;10.15;;;11.50;99.90;;;;;;4994180;28;20057;-71
2021/05/12 06:05:08;;;;;;;15.48;10.27;;;11.50;99.90;;;;;;4993976;28;20069;-71
2021/05/12 06:07:34;;;;;;;12.45;8.43;;;11.50;99.90;;;;;;4994227;28;20034;-71
2021/05/12 06:10:00;;;;;;;12.88;9.20;;;11.50;99.90;;;;;;4993920;28;20094;-69
2021/05/12 06:12:25;;;;;;;10.98;8.02;;;11.50;99.90;;;;;;4980512;28;20109;-69
2021/05/12 06:14:51;;;;;;;11.77;8.30;;;11.50;99.90;;;;;;4994064;28;20367;-69
2021/05/12 06:17:17;;;;;;;11.93;9.05;;;11.50;99.90;;;;;;4993887;28;20569;-69
2021/05/12 06:19:43;;;;;;;11.18;9.10;;;11.50;99.90;;;;;;4996397;28;20027;-72
2021/05/12 06:22:08;;;;;;;13.93;8.93;;;11.60;99.90;;;;;;4975722;28;20030;-72
2021/05/12 06:24:34;;;;;;;10.32;8.50;;;11.50;99.90;;;;;;4986408;28;20026;-71
2021/05/12 06:27:02;;;;;;;12.70;8.57;;;11.40;99.90;;;;;;4988560;28;20030;-72
2021/05/12 06:29:27;;;;;;;11.27;9.40;;;11.20;99.90;;;;;;4990545;28;20477;-73
2021/05/12 06:31:53;;;;;;;12.93;9.18;;;11.10;99.90;;;;;;4987213;28;20036;-72
2021/05/12 06:34:19;;;;;;;14.82;9.38;;;10.90;99.90;;;;;;4993506;28;20026;-70
2021/05/12 06:36:44;;;;;;;12.63;8.48;;;10.90;99.90;;;;;;4985095;28;20031;-70
2021/05/12 06:39:10;;;;;;;14.23;8.93;;;11.00;99.90;;;;;;4984622;28;20022;-70
2021/05/12 06:41:36;;;;;;;9.55;8.55;;;11.00;99.90;;;;;;4985906;28;20100;-70
2021/05/12 06:44:02;;;;;;;16.08;8.48;;;11.00;99.90;;;;;;4993138;28;20031;-69
2021/05/12 06:46:28;;;;;;;12.43;8.73;;;11.00;99.90;;;;;;4992626;28;20022;-70
2021/05/12 06:48:54;;;;;;;10.25;8.27;;;11.00;99.90;;;;;;4991528;28;20109;-70
2021/05/12 06:51:19;;;;;;;12.60;8.52;;;11.00;99.90;;;;;;4992874;28;20018;-70
2021/05/12 06:53:45;;;;;;;10.65;8.48;;;10.90;99.90;;;;;;4992828;28;20041;-71
2021/05/12 06:56:11;;;;;;;11.60;7.82;;;10.80;99.90;;;;;;4992633;28;20054;-71
2021/05/12 06:58:41;;;;;;;9.23;7.30;;;10.90;99.90;;;;;;4992833;28;20023;-71
2021/05/12 07:01:08;;;;;;;8.32;7.03;;;10.80;99.90;;;;;;4992750;28;20197;-71
2021/05/12 07:03:34;;;;;;;8.65;7.47;;;10.80;99.90;;;;;;4992679;28;20033;-71
2021/05/12 07:06:01;;;;;;;10.18;7.00;;;10.70;99.90;;;;;;4992668;28;20022;-71
2021/05/12 07:08:27;;;;;;;9.40;7.75;;;10.70;99.90;;;;;;4992609;28;20378;-71
2021/05/12 07:10:53;;;;;;;8.55;7.72;;;10.70;99.90;;;;;;4985818;28;20033;-71
2021/05/12 07:13:18;;;;;;;9.50;8.05;;;10.70;99.90;;;;;;4992661;28;20026;-74
2021/05/12 07:15:45;;;;;;;11.45;7.18;;;10.60;99.90;;;;;;4989288;28;20103;-71
2021/05/12 07:18:11;;;;;;;12.30;7.85;;;10.60;99.90;;;;;;4992219;28;20034;-73
2021/05/12 07:20:37;;;;;;;8.85;7.35;;;10.60;99.90;;;;;;4992128;28;20076;-73
2021/05/12 07:23:11;;;;;;;7.03;6.15;;;10.60;99.90;;;;;;4992114;28;20023;-71
2021/05/12 07:25:37;;;;;;;9.05;6.03;;;11.60;99.90;;;;;;4992043;28;20493;-74
2021/05/12 07:28:04;;;;;;;11.18;7.10;;;11.80;99.90;;;;;;4992581;28;20435;-76
2021/05/12 07:30:31;;;;;;;10.27;6.63;;;11.70;99.90;;;;;;4992074;28;20030;-76
2021/05/12 07:32:57;;;;;;;7.57;6.70;;;11.50;99.90;;;;;;4974553;28;20023;-74
2021/05/12 07:35:23;;;;;;;10.07;6.28;;;11.30;99.90;;;;;;5001045;28;20034;-76
2021/05/12 07:37:49;;;;;;;12.82;6.60;;;11.30;99.90;;;;;;5001003;28;20050;-75
2021/05/12 07:40:15;;;;;;;7.55;6.07;;;11.40;99.90;;;;;;4992200;28;20116;-75
2021/05/12 07:42:43;;;;;;;9.60;6.97;;;11.50;99.90;;;;;;4992459;28;20037;-75
2021/05/12 07:45:11;;;;;;;9.07;7.78;;;11.50;99.90;;;;;;4990146;28;20034;-76
2021/05/12 07:47:37;;;;;;;10.13;7.95;;;11.50;99.90;;;;;;4992391;28;20019;-76
2021/05/12 07:50:08;;;;;;;11.70;8.95;;;11.50;99.90;;;;;;4992258;28;20077;-76
2021/05/12 07:52:33;;;;;;;13.60;9.75;;;11.50;99.90;;;;;;4992354;28;20022;-76
2021/05/12 07:54:59;;;;;;;9.63;7.38;;;11.60;99.90;;;;;;4991864;28;20042;-75
2021/05/12 07:57:25;;;;;;;10.95;8.05;;;11.70;99.90;;;;;;4991920;28;20577;-75
2021/05/12 07:59:51;;;;;;;10.35;8.07;;;11.90;99.90;;;;;;4992216;28;20106;-75
2021/05/12 08:02:16;;;;;;;11.98;7.90;;;12.00;99.90;;;;;;4991997;28;20114;-75
2021/05/12 08:04:42;;;;;;;9.20;8.13;;;12.30;99.90;;;;;;4984338;28;20034;-74
2021/05/12 08:07:08;;;;;;;9.15;7.55;;;12.70;99.90;;;;;;4991802;28;20383;-74
2021/05/12 08:09:34;;;;;;;14.60;8.55;;;12.60;99.90;;;;;;4992529;28;20026;-75
2021/05/12 08:12:00;;;;;;;12.10;8.77;;;12.50;99.90;;;;;;4991831;28;20418;-75
2021/05/12 08:14:26;;;;;;;14.50;8.27;;;12.50;99.90;;;;;;4992097;28;20470;-75
2021/05/12 08:16:52;;;;;;;21.30;9.95;;;12.40;99.90;;;;;;4991855;28;20034;-76
2021/05/12 08:19:17;;;;;;;17.83;10.60;;;12.30;99.90;;;;;;4991912;28;20029;-75
2021/05/12 08:21:44;;;;;;;13.68;8.75;;;12.20;99.90;;;;;;4992045;28;20030;-74
2021/05/12 08:24:10;;;;;;;14.40;8.77;;;12.10;99.90;;;;;;4991677;28;20010;-71
2021/05/12 08:26:35;;;;;;;14.35;8.23;;;12.00;99.90;;;;;;4992068;28;20398;-73
2021/05/12 08:29:04;;;;;;;11.52;6.78;;;11.90;99.90;;;;;;4978290;28;20471;-72
2021/05/12 08:31:30;;;;;;;11.82;6.97;;;12.20;99.90;;;;;;4991960;28;20478;-74
2021/05/12 08:33:56;;;;;;;13.27;8.05;;;12.60;99.90;;;;;;4991651;28;20019;-71
2021/05/12 08:36:22;;;;;;;8.27;6.60;;;12.50;99.90;;;;;;4985397;28;20546;-71
2021/05/12 08:38:48;;;;;;;9.43;6.85;;;12.30;99.90;;;;;;4986126;28;20023;-67
2021/05/12 08:41:15;;;;;;;7.82;6.25;;;12.30;99.90;;;;;;4988485;28;20038;-66
2021/05/12 08:43:42;;;;;;;8.35;7.22;;;12.20;99.90;;;;;;4983905;28;20058;-66
2021/05/12 08:46:13;;;;;;;10.05;7.35;;;12.30;99.90;;;;;;4987384;28;20018;-66
2021/05/12 08:48:40;;;;;;;49.28;9.48;;;12.40;99.90;;;;;;4980012;28;20023;-66
2021/05/12 08:51:08;;;;;;;8.68;7.30;;;12.50;99.90;;;;;;4984268;28;20018;-69
2021/05/12 08:53:34;;;;;;;9.60;7.38;;;12.50;99.90;;;;;;4991475;28;20030;-70
2021/05/12 08:56:01;;;;;;;8.57;7.20;;;12.40;99.90;;;;;;4992884;28;20054;-70
2021/05/12 08:58:30;;;;;;;9.77;7.63;;;12.30;99.90;;;;;;4976035;28;20113;-71
2021/05/12 09:00:56;;;;;;;8.30;7.10;;;12.20;99.90;;;;;;4991314;28;20548;-71
2021/05/12 09:03:26;;;;;;;12.57;7.55;;;12.20;99.90;;;;;;4982424;28;20064;-71
2021/05/12 09:05:51;;;;;;;8.13;6.78;;;12.10;99.90;;;;;;4984843;28;20034;-71
2021/05/12 09:08:17;;;;;;;10.73;5.00;;;12.10;99.90;;;;;;4989505;28;20027;-70
2021/05/12 09:10:43;;;;;;;7.95;5.47;;;12.00;99.90;;;;;;4989737;28;20023;-70
2021/05/12 09:13:26;;;;;;;5.43;4.93;;;11.90;99.90;;;;;;4990918;28;20018;-71
2021/05/12 09:15:52;;;;;;;6.22;4.90;;;11.80;99.90;;;;;;4990171;28;20062;-70
2021/05/12 09:18:29;;;;;;;9.05;5.47;;;11.70;99.90;;;;;;4994652;28;20069;-71
2021/05/12 09:20:54;;;;;;;6.88;4.75;;;11.80;99.90;;;;;;4993735;28;20100;-71
2021/05/12 09:23:22;;;;;;;5.90;5.30;;;11.90;99.90;;;;;;4992328;28;20490;-71
2021/05/12 09:25:54;;;;;;;6.20;4.72;;;11.90;99.90;;;;;;4994492;28;20493;-71
2021/05/12 09:28:21;;;;;;;6.13;5.00;;;12.00;99.90;;;;;;4993502;28;20486;-71
2021/05/12 09:31:01;;;;;;;10.85;5.38;;;12.00;99.90;;;;;;4977277;28;20387;-71
2021/05/12 09:33:30;;;;;;;6.50;5.55;;;12.00;99.90;;;;;;4986414;28;20025;-71
2021/05/12 09:35:57;;;;;;;5.50;4.72;;;12.20;99.90;;;;;;4994730;28;20042;-71
2021/05/12 09:38:25;;;;;;;7.18;4.30;;;12.20;99.90;;;;;;4994897;28;20026;-71
2021/05/12 09:41:13;;;;;;;7.30;3.97;;;12.20;99.90;;;;;;4994810;28;20069;-71
2021/05/12 09:43:50;;;;;;;3.92;3.45;;;12.30;99.90;;;;;;4982369;28;20030;-72
2021/05/12 09:46:27;;;;;;;5.70;3.50;;;12.30;99.90;;;;;;4994581;28;20034;-71
2021/05/12 09:48:59;;;;;;;7.07;3.60;;;12.60;99.90;;;;;;4994370;28;20030;-70
2021/05/12 09:51:33;;;;;;;3.78;3.00;;;12.60;99.90;;;;;;4993062;28;20167;-71
2021/05/12 09:54:03;;;;;;;5.25;3.20;;;12.60;99.90;;;;;;5005713;28;20018;-70
2021/05/12 09:56:40;;;;;;;3.38;3.08;;;12.70;99.90;;;;;;4994250;28;20038;-73
2021/05/12 09:59:12;;;;;;;5.55;3.80;;;12.80;99.90;;;;;;4994476;28;20103;-73
2021/05/12 10:01:58;;;;;;;3.40;2.95;;;12.90;99.90;;;;;;4994350;28;20026;-69
2021/05/12 10:04:45;;;;;;;4.63;3.33;;;13.00;99.90;;;;;;4991187;28;20054;-69
2021/05/12 10:07:20;;;;;;;3.53;2.60;;;13.10;99.90;;;;;;4993811;28;20053;-69
2021/05/12 10:09:51;;;;;;;4.70;2.75;;;13.10;99.90;;;;;;4988435;28;20053;-69
2021/05/12 10:12:22;;;;;;;3.05;2.50;;;13.10;99.90;;;;;;4977536;28;20034;-69
2021/05/12 10:14:51;;;;;;;5.45;2.55;;;13.00;99.90;;;;;;4985468;28;20118;-69
2021/05/12 10:17:20;;;;;;;5.50;2.58;;;13.20;99.90;;;;;;4993933;28;20038;-71
2021/05/12 10:19:47;;;;;;;3.20;2.58;;;13.10;99.90;;;;;;4993588;28;20478;-71
2021/05/12 10:22:14;;;;;;;4.45;3.30;;;13.00;99.90;;;;;;4993814;28;20097;-71
2021/05/12 10:24:42;;;;;;;6.80;2.42;;;12.80;99.90;;;;;;4987087;28;20360;-68
2021/05/12 10:27:13;;;;;;;3.72;3.22;;;12.80;99.90;;;;;;4993364;28;20069;-72
2021/05/12 10:29:51;;;;;;;2.70;2.45;;;12.60;99.90;;;;;;4993859;28;20061;-71
2021/05/12 10:32:24;;;;;;;3.75;3.15;;;12.60;99.90;;;;;;4993839;28;20022;-71
2021/05/12 10:35:00;;;;;;;5.55;4.90;;;12.60;99.90;;;;;;4997919;28;20022;-71
2021/05/12 10:37:28;;;;;;;4.95;3.97;;;12.80;99.90;;;;;;5001749;28;20041;-71
2021/05/12 10:40:00;;;;;;;9.50;4.97;;;12.90;99.90;;;;;;4997771;28;20018;-70
2021/05/12 10:48:48;;;;;;;16.10;6.20;;;12.80;99.90;;;;;;4993370;28;20069;-72
2021/05/12 10:51:20;;;;;;;17.00;5.35;;;12.80;99.90;;;;;;4989045;28;20019;-72
2021/05/12 10:53:52;;;;;;;8.10;4.20;;;12.60;99.90;;;;;;4989360;28;20085;-72
2021/05/12 10:56:22;;;;;;;8.32;5.28;;;12.80;99.90;;;;;;4986402;28;20453;-72
2021/05/12 10:59:04;;;;;;;19.42;5.45;;;13.00;99.90;;;;;;4993260;28;20026;-72
2021/05/12 11:01:34;;;;;;;22.83;5.10;;;12.80;99.90;;;;;;4987237;28;20037;-72
2021/05/12 11:04:00;;;;;;;7.22;4.20;;;12.60;99.90;;;;;;4986877;28;20493;-72
2021/05/12 11:06:34;;;;;;;6.50;3.92;;;12.60;99.90;;;;;;4993139;28;20034;-72
2021/05/12 11:09:11;;;;;;;7.78;4.00;;;12.60;99.90;;;;;;4992799;28;20082;-73
2021/05/12 11:11:43;;;;;;;6.68;3.97;;;12.60;99.90;;;;;;4986614;28;20041;-72
2021/05/12 11:14:22;;;;;;;7.57;3.78;;;12.60;99.90;;;;;;4986514;28;20029;-72
2021/05/12 11:17:07;;;;;;;4.43;3.25;;;12.60;99.90;;;;;;4986807;28;20034;-72
2021/05/12 11:19:34;;;;;;;6.78;3.25;;;12.70;99.90;;;;;;4982852;28;20489;-72
2021/05/12 11:22:31;;;;;;;7.05;3.33;;;12.70;99.90;;;;;;4992569;28;20494;-72
2021/05/12 11:28:45;;;;;;;6.43;4.57;;;12.60;99.90;;;;;;4932462;29;20031;-72
2021/05/12 11:33:50;;;;;;;7.07;4.30;;;12.20;99.90;;;;;;4992498;28;20450;-72
2021/05/12 11:36:20;;;;;;;7.93;3.97;;;12.30;99.90;;;;;;4992450;28;20038;-75
2021/05/12 11:38:46;;;;;;;13.27;4.93;;;12.40;99.90;;;;;;4992105;28;20022;-76
2021/05/12 11:41:18;;;;;;;8.80;4.45;;;12.50;99.90;;;;;;4992488;28;20026;-75
2021/05/12 11:43:44;;;;;;;6.47;4.72;;;12.50;99.90;;;;;;5000406;28;20018;-83
2021/05/12 11:46:25;;;;;;;9.90;5.13;;;12.50;99.90;;;;;;4998835;28;20483;-82
2021/05/12 11:49:03;;;;;;;6.65;5.63;;;12.60;99.90;;;;;;4980631;28;20037;-73
2021/05/12 11:51:37;;;;;;;9.40;6.00;;;12.60;99.90;;;;;;4993815;28;20033;-75
2021/05/12 11:54:06;;;;;;;9.50;6.18;;;12.70;99.90;;;;;;5006593;28;20062;-75
2021/05/12 11:56:32;;;;;;;10.93;5.70;;;12.60;99.90;;;;;;4981631;28;20486;-74
2021/05/12 11:59:01;;;;;;;8.82;6.25;;;12.60;99.90;;;;;;4978430;28;20050;-74
2021/05/12 12:01:29;;;;;;;6.05;5.18;;;12.60;99.90;;;;;;4974950;28;20099;-71
2021/05/12 12:04:45;;;;;;;5.75;4.82;;;12.60;99.90;;;;;;4991841;28;20073;-70
2021/05/12 12:06:48;;;;;;;11.32;5.85;;;12.60;99.90;;;;;;4981711;28;20552;-72
2021/05/12 12:09:15;;;;;;;9.38;5.72;;;12.60;99.90;;;;;;4991867;28;20495;-71
2021/05/12 12:11:42;;;;;;;7.10;5.13;;;12.70;99.90;;;;;;4992128;28;20049;-72
2021/05/12 12:14:09;;;;;;;11.35;4.97;;;12.70;99.90;;;;;;4981458;28;20014;-72
2021/05/12 12:16:36;;;;;;;7.28;5.15;;;12.80;99.90;;;;;;4992215;28;20117;-72
2021/05/12 12:19:11;;;;;;;6.88;5.65;;;12.80;99.90;;;;;;4991846;28;20106;-71
2021/05/12 12:21:39;;;;;;;4.85;4.35;;;12.70;99.90;;;;;;4992199;28;20026;-71
2021/05/12 12:24:08;;;;;;;5.68;4.72;;;12.70;99.90;;;;;;4991768;28;20018;-72
2021/05/12 12:26:36;;;;;;;7.82;4.78;;;12.50;99.90;;;;;;4991925;28;20478;-71
2021/05/12 12:29:05;;;;;;;13.43;6.03;;;12.50;99.90;;;;;;4991607;28;20035;-71
2021/05/12 12:31:36;;;;;;;8.45;6.20;;;12.30;99.90;;;;;;4992181;28;20477;-71
2021/05/12 12:34:20;;;;;;;8.70;6.70;;;12.30;99.90;;;;;;4991808;28;20034;-72
2021/05/12 12:37:00;;;;;;;10.70;7.18;;;12.30;99.90;;;;;;4978679;28;20026;-72
2021/05/12 12:39:56;;;;;;;8.70;6.60;;;12.30;99.90;;;;;;4991676;28;20026;-72
2021/05/12 12:42:45;;;;;;;13.88;6.03;;;12.30;99.90;;;;;;4976029;28;20061;-70
2021/05/12 12:45:29;;;;;;;7.03;5.63;;;12.20;99.90;;;;;;4985237;28;20026;-66
2021/05/12 12:47:59;;;;;;;7.22;5.30;;;12.20;99.90;;;;;;4982683;28;20046;-69
2021/05/12 12:50:29;;;;;;;6.32;5.05;;;12.30;99.90;;;;;;4992551;28;20040;-67
2021/05/12 12:53:00;;;;;;;6.47;4.35;;;12.30;99.90;;;;;;4995639;28;20034;-69
2021/05/12 12:55:31;;;;;;;6.00;4.93;;;12.60;99.90;;;;;;4995173;28;20050;-69
2021/05/12 12:58:02;;;;;;;6.50;5.20;;;12.60;99.90;;;;;;4995490;28;20076;-69
2021/05/12 13:00:30;;;;;;;6.95;5.10;;;12.50;99.90;;;;;;4995324;28;20433;-69
2021/05/12 13:03:11;;;;;;;8.32;5.20;;;12.50;99.90;;;;;;4987672;28;20109;-71
2021/05/12 13:05:44;;;;;;;6.30;4.38;;;12.50;99.90;;;;;;4995601;28;20040;-69
2021/05/12 13:08:24;;;;;;;8.63;4.97;;;12.50;99.90;;;;;;4995294;28;20541;-72
2021/05/12 13:10:55;;;;;;;11.35;4.57;;;12.60;99.90;;;;;;4990580;28;20023;-68
2021/05/12 13:13:29;;;;;;;6.72;4.90;;;12.70;99.90;;;;;;4995347;28;20106;-68
2021/05/12 13:15:56;;;;;;;6.15;4.80;;;12.90;99.90;;;;;;4990200;28;20538;-68
2021/05/12 13:18:27;;;;;;;7.65;4.97;;;13.10;99.90;;;;;;4994272;28;20085;-67
2021/05/12 13:20:54;;;;;;;10.32;4.88;;;13.10;99.90;;;;;;4986193;28;20168;-69
2021/05/12 13:23:29;;;;;;;8.13;5.13;;;13.00;99.90;;;;;;4984650;28;20026;-68
2021/05/12 13:25:58;;;;;;;6.90;5.07;;;12.90;99.90;;;;;;4982470;28;20032;-68
2021/05/12 13:28:27;;;;;;;9.25;5.13;;;12.90;99.90;;;;;;4991901;28;20062;-68
2021/05/12 13:30:54;;;;;;;7.72;5.00;;;13.00;99.90;;;;;;4994729;28;20023;-69
2021/05/12 13:33:23;;;;;;;10.25;4.97;;;12.90;99.90;;;;;;4994678;28;20525;-70
2021/05/12 13:35:50;;;;;;;13.20;4.28;;;12.90;99.90;;;;;;4994701;28;20046;-71
2021/05/12 13:38:17;;;;;;;7.22;4.63;;;12.80;99.90;;;;;;4994760;28;20035;-71
2021/05/12 13:40:43;;;;;;;7.75;4.22;;;12.80;99.90;;;;;;4977081;28;20038;-70
2021/05/12 13:43:09;;;;;;;6.70;4.22;;;12.80;99.90;;;;;;4994734;28;20386;-71
2021/05/12 13:45:35;;;;;;;7.00;3.88;;;12.80;99.90;;;;;;4992765;28;20201;-68
2021/05/12 13:48:00;;;;;;;8.13;3.90;;;12.80;99.90;;;;;;4986795;28;20022;-68
2021/05/12 13:50:31;;;;;;;5.47;3.42;;;13.70;99.90;;;;;;4994179;28;20050;-70
2021/05/12 13:55:34;;;;;;;5.53;3.80;;;13.90;99.90;;;;;;4993395;28;21409;-71
2021/05/12 14:03:28;;;;;;;6.05;3.60;;;13.20;99.90;;;;;;4993455;28;20053;-74
2021/05/12 14:05:55;;;;;;;5.85;3.40;;;13.10;99.90;;;;;;4994029;28;20109;-71
2021/05/12 14:08:21;;;;;;;4.43;3.30;;;13.20;99.90;;;;;;4994412;28;20030;-71
2021/05/12 14:10:47;;;;;;;4.20;3.13;;;13.20;99.90;;;;;;4997316;28;20386;-71
2021/05/12 14:18:26;;;;;;;5.38;3.20;;;13.10;99.90;;;;;;4994175;28;20074;-71
2021/05/12 14:20:52;;;;;;;7.28;4.03;;;13.10;99.90;;;;;;4993650;28;20454;-72
2021/05/12 14:23:18;;;;;;;11.50;4.05;;;13.10;99.90;;;;;;4993541;28;20026;-72
2021/05/12 14:25:44;;;;;;;5.78;3.63;;;13.10;99.90;;;;;;4993787;28;20136;-72
2021/05/12 14:28:10;;;;;;;5.85;3.55;;;13.10;99.90;;;;;;4993606;28;20537;-71
2021/05/12 14:30:41;;;;;;;6.38;3.75;;;13.10;99.90;;;;;;4998695;28;20026;-72
2021/05/12 14:33:07;;;;;;;13.18;3.97;;;13.10;99.90;;;;;;4995153;28;20390;-72
2021/05/12 14:35:33;;;;;;;17.30;4.05;;;13.00;99.90;;;;;;5003705;28;20124;-72
2021/05/12 14:38:00;;;;;;;10.45;3.75;;;13.00;99.90;;;;;;5010606;28;20038;-71
2021/05/12 14:40:27;;;;;;;13.73;4.20;;;13.00;99.90;;;;;;5001517;28;20516;-72
2021/05/12 14:42:53;;;;;;;7.32;3.67;;;12.80;99.90;;;;;;4999479;28;20031;-72
2021/05/12 14:45:19;;;;;;;9.50;4.35;;;12.80;99.90;;;;;;5013147;28;20025;-72
2021/05/12 14:47:45;;;;;;;5.82;3.60;;;12.80;99.90;;;;;;5012855;28;20032;-71
2021/05/12 14:50:15;;;;;;;6.53;4.22;;;12.90;99.90;;;;;;4995733;28;20058;-71
2021/05/12 15:03:07;;;;;;;10.75;4.70;;;12.80;99.90;;;;;;5003813;28;20478;-72
2021/05/12 15:08:18;;;;;;;6.47;4.00;;;12.70;99.90;;;;;;5012352;28;20062;-72
2021/05/12 15:10:44;;;;;;;4.60;4.05;;;12.60;99.90;;;;;;5012461;28;20049;-71
2021/05/12 15:13:10;;;;;;;7.03;4.10;;;12.60;99.90;;;;;;5000094;28;20049;-72
2021/05/12 15:15:35;;;;;;;6.90;4.43;;;12.70;99.90;;;;;;4996494;28;20132;-71
2021/05/12 15:18:02;;;;;;;7.63;4.60;;;12.60;99.90;;;;;;5012149;28;20105;-72
2021/05/12 15:20:28;;;;;;;18.48;4.68;;;12.70;99.90;;;;;;4997758;28;20018;-72
2021/05/12 15:22:54;;;;;;;7.43;3.80;;;12.80;99.90;;;;;;5004157;28;20029;-72
2021/05/12 15:25:20;;;;;;;4.15;3.67;;;12.80;99.90;;;;;;4975446;28;20065;-71
2021/05/12 15:27:46;;;;;;;4.85;3.58;;;12.90;99.90;;;;;;4998820;28;20022;-72
2021/05/12 15:30:13;;;;;;;6.90;3.78;;;12.90;99.90;;;;;;5012084;28;20490;-72
2021/05/12 15:32:39;;;;;;;5.10;3.70;;;12.90;99.90;;;;;;5011788;28;20091;-71
2021/05/12 15:35:05;;;;;;;5.35;3.60;;;12.90;99.90;;;;;;4992383;28;20105;-71
2021/05/12 15:37:30;;;;;;;7.28;3.85;;;13.00;99.90;;;;;;5004774;28;20628;-72
2021/05/12 15:39:56;;;;;;;5.53;3.90;;;13.00;99.90;;;;;;4998070;28;20101;-72
2021/05/12 15:42:23;;;;;;;8.77;3.72;;;13.10;99.90;;;;;;5001327;28;20105;-72
2021/05/12 15:44:49;;;;;;;5.78;4.53;;;13.00;99.90;;;;;;4991489;28;20029;-71
2021/05/12 15:47:15;;;;;;;8.52;4.68;;;13.00;99.90;;;;;;5000313;28;20030;-72
2021/05/12 15:49:40;;;;;;;6.95;4.35;;;13.00;99.90;;;;;;5011365;28;20513;-72
2021/05/12 15:52:06;;;;;;;5.32;4.07;;;13.00;99.90;;;;;;4991649;28;20509;-71
2021/05/12 15:54:32;;;;;;;7.72;4.25;;;13.00;99.90;;;;;;4991098;28;20026;-72
2021/05/12 15:56:58;;;;;;;5.82;4.45;;;13.00;99.90;;;;;;4991597;28;20057;-72
2021/05/12 15:59:24;;;;;;;7.45;4.15;;;13.00;99.90;;;;;;4992035;28;20030;-72
2021/05/12 16:01:49;;;;;;;10.75;4.30;;;12.90;99.90;;;;;;5005443;28;20474;-72
2021/05/12 16:04:15;;;;;;;9.02;4.28;;;12.90;99.90;;;;;;4992125;28;20133;-72
2021/05/12 16:06:41;;;;;;;5.80;4.35;;;12.90;99.90;;;;;;4992373;28;20034;-72
2021/05/12 16:09:07;;;;;;;6.25;4.53;;;13.00;99.90;;;;;;5011533;28;20021;-72
2021/05/12 16:11:36;;;;;;;13.95;5.35;;;13.00;99.90;;;;;;4993801;28;20022;-71
2021/05/12 16:14:03;;;;;;;2.90;2.03;;;13.00;99.90;;;;;;5011760;28;20466;-69
2021/05/12 16:16:29;;;;;;;7.18;3.50;;;13.20;99.90;;;;;;5011560;28;20399;-68
2021/05/12 16:18:55;;;;;;;5.55;4.20;;;14.00;99.90;;;;;;4997696;28;20026;-72
2021/05/12 16:21:21;;;;;;;5.05;3.95;;;14.10;99.90;;;;;;5011143;28;20026;-72
2021/05/12 16:23:46;;;;;;;8.10;3.97;;;13.80;99.90;;;;;;4997944;28;20022;-72
2021/05/12 16:26:13;;;;;;;15.88;4.25;;;13.50;99.90;;;;;;5006262;28;20026;-72
2021/05/12 16:28:39;;;;;;;6.40;4.05;;;13.40;99.90;;;;;;5008898;28;20182;-72
2021/05/12 16:31:05;;;;;;;8.27;3.70;;;13.40;99.90;;;;;;4996178;28;20080;-72
2021/05/12 16:33:31;;;;;;;8.65;4.53;;;13.40;99.90;;;;;;4999412;28;20037;-72
2021/05/12 16:35:57;;;;;;;6.18;4.20;;;13.30;99.90;;;;;;5009092;28;20038;-72
2021/05/12 16:38:24;;;;;;;5.80;3.53;;;13.20;99.90;;;;;;5009412;28;20479;-72
2021/05/12 16:40:54;;;;;;;6.07;3.75;;;13.20;99.90;;;;;;4995399;28;20466;-72
2021/05/12 16:43:20;;;;;;;10.27;4.20;;;13.20;99.90;;;;;;5009164;28;20030;-72
2021/05/12 16:45:46;;;;;;;8.15;4.13;;;13.20;99.90;;;;;;5005905;28;20030;-72
2021/05/12 16:48:12;;;;;;;7.85;4.13;;;13.30;99.90;;;;;;4998846;28;20109;-72
2021/05/12 16:50:43;;;;;;;6.95;3.97;;;13.30;99.90;;;;;;4995061;28;20081;-72
2021/05/12 16:53:10;;;;;;;7.00;3.80;;;13.30;99.90;;;;;;5010514;28;20108;-72
2021/05/12 16:55:36;;;;;;;6.20;3.65;;;13.60;99.90;;;;;;4987158;28;20053;-72
2021/05/12 16:58:02;;;;;;;8.82;3.53;;;13.70;99.90;;;;;;4975458;28;20391;-72
2021/05/12 17:00:28;;;;;;;5.63;4.05;;;13.60;99.90;;;;;;4974912;28;20030;-73
2021/05/12 17:02:55;;;;;;;7.63;3.65;;;13.50;99.90;;;;;;4976154;28;20033;-73
2021/05/12 17:05:21;;;;;;;8.25;4.05;;;13.50;99.90;;;;;;4974442;28;20019;-73
2021/05/12 17:07:47;;;;;;;5.20;3.75;;;13.40;99.90;;;;;;4975664;28;20587;-73
2021/05/12 17:10:13;;;;;;;7.47;4.20;;;13.40;99.90;;;;;;4975800;28;20034;-73
2021/05/12 17:12:41;;;;;;;6.38;3.47;;;13.50;99.90;;;;;;4963743;28;20023;-73
2021/05/12 17:15:12;;;;;;;8.07;3.70;;;13.40;99.90;;;;;;4974803;28;20467;-73
2021/05/12 17:17:38;;;;;;;9.82;3.70;;;13.40;99.90;;;;;;4975466;28;20041;-73
2021/05/12 17:20:05;;;;;;;5.70;3.92;;;13.40;99.90;;;;;;4975588;28;20058;-73
2021/05/12 17:22:32;;;;;;;10.57;4.20;;;13.30;99.90;;;;;;4973343;28;20030;-73